sensor_id;sensor_type;location;lat;lon;timestamp;P1;P2;P0
40569;PMS5003;26270;34.428;-119.710;2022-10-16T00:00:15;3;3;
40569;PMS5003;26270;34.428;-119.710;2022-10-16T00:02:43;4;4;
40569;PMS5003;26270;34.428;-119.710;2022-10-16T00:05:11;4;4;
40569;PMS5003;26270;34.428;-119.710;2022-10-16T00:07:39;4;3;
40569;PMS5003;26270;34.428;-119.710;2022-10-16T00:10:08;3;3;
40569;PMS5003;26270;34.428;-119.710;2022-10-16T00:12:36;2;2;
40569;PMS5003;26270;34.428;-119.710;2022-10-16T00:15:04;3;3;
40569;PMS5003;26270;34.428;-119.710;2022-10-16T00:17:33;3;3;
40569;PMS5003;26270;34.428;-119.710;2022-10-16T00:20:01;3;3;
40569;PMS5003;26270;34.428;-119.710;2022-10-16T00:22:30;4;3;
40569;PMS5003;26270;34.428;-119.710;2022-10-16T00:24:59;2;2;
40569;PMS5003;26270;34.428;-119.710;2022-10-16T00:27:27;4;4;
40569;PMS5003;26270;34.428;-119.710;2022-10-16T00:29:55;2;2;
40569;PMS5003;26270;34.428;-119.710;2022-10-16T00:32:24;3;3;
40569;PMS5003;26270;34.428;-119.710;2022-10-16T00:34:52;4;3;
40569;PMS5003;26270;34.428;-119.710;2022-10-16T00:37:20;2;2;
40569;PMS5003;26270;34.428;-119.710;2022-10-16T00:39:48;3;3;
40569;PMS5003;26270;34.428;-119.710;2022-10-16T00:42:17;3;3;
40569;PMS5003;26270;34.428;-119.710;2022-10-16T00:44:47;2;2;
40569;PMS5003;26270;34.428;-119.710;2022-10-16T00:47:18;2;2;
40569;PMS5003;26270;34.428;-119.710;2022-10-16T00:49:50;1;1;
40569;PMS5003;26270;34.428;-119.710;2022-10-16T00:52:23;3;3;
40569;PMS5003;26270;34.428;-119.710;2022-10-16T00:54:51;4;3;
40569;PMS5003;26270;34.428;-119.710;2022-10-16T00:57:21;2;2;
40569;PMS5003;26270;34.428;-119.710;2022-10-16T00:59:50;3;3;
40569;PMS5003;26270;34.428;-119.710;2022-10-16T01:02:19;3;2;
40569;PMS5003;26270;34.428;-119.710;2022-10-16T01:04:48;5;3;
40569;PMS5003;26270;34.428;-119.710;2022-10-16T01:07:22;3;2;
40569;PMS5003;26270;34.428;-119.710;2022-10-16T01:10:04;4;4;
40569;PMS5003;26270;34.428;-119.710;2022-10-16T01:12:41;1;1;
40569;PMS5003;26270;34.428;-119.710;2022-10-16T01:15:14;1;1;
40569;PMS5003;26270;34.428;-119.710;2022-10-16T01:17:51;2;1;
40569;PMS5003;26270;34.428;-119.710;2022-10-16T01:20:27;4;3;
40569;PMS5003;26270;34.428;-119.710;2022-10-16T01:23:02;2;2;
40569;PMS5003;26270;34.428;-119.710;2022-10-16T01:25:52;2;2;
40569;PMS5003;26270;34.428;-119.710;2022-10-16T01:28:32;3;3;
40569;PMS5003;26270;34.428;-119.710;2022-10-16T01:31:05;2;2;
40569;PMS5003;26270;34.428;-119.710;2022-10-16T01:33:38;2;2;
40569;PMS5003;26270;34.428;-119.710;2022-10-16T01:36:10;2;2;
40569;PMS5003;26270;34.428;-119.710;2022-10-16T01:38:44;2;2;
40569;PMS5003;26270;34.428;-119.710;2022-10-16T01:41:18;2;2;
40569;PMS5003;26270;34.428;-119.710;2022-10-16T01:43:53;3;3;
40569;PMS5003;26270;34.428;-119.710;2022-10-16T01:46:26;3;3;
40569;PMS5003;26270;34.428;-119.710;2022-10-16T01:48:55;2;1;
40569;PMS5003;26270;34.428;-119.710;2022-10-16T01:51:24;2;2;
40569;PMS5003;26270;34.428;-119.710;2022-10-16T01:53:57;1;1;
40569;PMS5003;26270;34.428;-119.710;2022-10-16T01:56:28;2;2;
40569;PMS5003;26270;34.428;-119.710;2022-10-16T01:58:58;2;2;
40569;PMS5003;26270;34.428;-119.710;2022-10-16T02:01:32;2;2;
40569;PMS5003;26270;34.428;-119.710;2022-10-16T02:04:09;3;2;
40569;PMS5003;26270;34.428;-119.710;2022-10-16T02:06:41;2;2;
40569;PMS5003;26270;34.428;-119.710;2022-10-16T02:09:10;3;2;
40569;PMS5003;26270;34.428;-119.710;2022-10-16T02:11:38;3;2;
40569;PMS5003;26270;34.428;-119.710;2022-10-16T02:14:06;3;3;
40569;PMS5003;26270;34.428;-119.710;2022-10-16T02:16:35;3;3;
40569;PMS5003;26270;34.428;-119.710;2022-10-16T02:19:05;2;2;
40569;PMS5003;26270;34.428;-119.710;2022-10-16T02:21:36;2;2;
40569;PMS5003;26270;34.428;-119.710;2022-10-16T02:24:13;3;2;
40569;PMS5003;26270;34.428;-119.710;2022-10-16T02:26:50;3;2;
40569;PMS5003;26270;34.428;-119.710;2022-10-16T02:29:25;3;3;
40569;PMS5003;26270;34.428;-119.710;2022-10-16T02:31:55;3;2;
40569;PMS5003;26270;34.428;-119.710;2022-10-16T02:34:27;1;1;
40569;PMS5003;26270;34.428;-119.710;2022-10-16T02:36:58;3;3;
40569;PMS5003;26270;34.428;-119.710;2022-10-16T02:39:31;4;3;
40569;PMS5003;26270;34.428;-119.710;2022-10-16T02:42:00;2;2;
40569;PMS5003;26270;34.428;-119.710;2022-10-16T02:44:29;5;2;
40569;PMS5003;26270;34.428;-119.710;2022-10-16T02:46:57;3;3;
40569;PMS5003;26270;34.428;-119.710;2022-10-16T02:49:25;3;3;
40569;PMS5003;26270;34.428;-119.710;2022-10-16T02:51:53;2;2;
40569;PMS5003;26270;34.428;-119.710;2022-10-16T02:54:22;2;2;
40569;PMS5003;26270;34.428;-119.710;2022-10-16T02:56:50;5;4;
40569;PMS5003;26270;34.428;-119.710;2022-10-16T02:59:18;3;3;
40569;PMS5003;26270;34.428;-119.710;2022-10-16T03:01:46;4;3;
40569;PMS5003;26270;34.428;-119.710;2022-10-16T03:04:14;4;3;
40569;PMS5003;26270;34.428;-119.710;2022-10-16T03:06:43;5;4;
40569;PMS5003;26270;34.428;-119.710;2022-10-16T03:09:11;3;2;
40569;PMS5003;26270;34.428;-119.710;2022-10-16T03:11:39;3;3;
40569;PMS5003;26270;34.428;-119.710;2022-10-16T03:14:07;2;2;
40569;PMS5003;26270;34.428;-119.710;2022-10-16T03:16:36;2;2;
40569;PMS5003;26270;34.428;-119.710;2022-10-16T03:19:04;3;2;
40569;PMS5003;26270;34.428;-119.710;2022-10-16T03:21:32;3;3;
40569;PMS5003;26270;34.428;-119.710;2022-10-16T03:24:00;3;3;
40569;PMS5003;26270;34.428;-119.710;2022-10-16T03:26:28;3;3;
40569;PMS5003;26270;34.428;-119.710;2022-10-16T03:28:57;2;2;
40569;PMS5003;26270;34.428;-119.710;2022-10-16T03:31:25;4;3;
40569;PMS5003;26270;34.428;-119.710;2022-10-16T03:33:53;3;3;
40569;PMS5003;26270;34.428;-119.710;2022-10-16T03:36:22;1;1;
40569;PMS5003;26270;34.428;-119.710;2022-10-16T03:38:50;3;2;
40569;PMS5003;26270;34.428;-119.710;2022-10-16T03:41:18;3;2;
40569;PMS5003;26270;34.428;-119.710;2022-10-16T03:43:46;3;3;
40569;PMS5003;26270;34.428;-119.710;2022-10-16T03:46:14;3;3;
40569;PMS5003;26270;34.428;-119.710;2022-10-16T03:48:42;3;3;
40569;PMS5003;26270;34.428;-119.710;2022-10-16T03:51:11;7;5;
40569;PMS5003;26270;34.428;-119.710;2022-10-16T03:53:39;4;4;
40569;PMS5003;26270;34.428;-119.710;2022-10-16T03:56:07;3;3;
40569;PMS5003;26270;34.428;-119.710;2022-10-16T03:58:35;4;2;
40569;PMS5003;26270;34.428;-119.710;2022-10-16T04:03:19;2;2;
40569;PMS5003;26270;34.428;-119.710;2022-10-16T04:05:47;3;3;
40569;PMS5003;26270;34.428;-119.710;2022-10-16T04:08:16;2;2;
40569;PMS5003;26270;34.428;-119.710;2022-10-16T04:10:44;3;3;
40569;PMS5003;26270;34.428;-119.710;2022-10-16T04:13:12;3;2;
40569;PMS5003;26270;34.428;-119.710;2022-10-16T04:15:40;1;1;
40569;PMS5003;26270;34.428;-119.710;2022-10-16T04:18:08;3;3;
40569;PMS5003;26270;34.428;-119.710;2022-10-16T04:20:37;1;1;
40569;PMS5003;26270;34.428;-119.710;2022-10-16T04:23:05;4;3;
40569;PMS5003;26270;34.428;-119.710;2022-10-16T04:25:33;5;4;
40569;PMS5003;26270;34.428;-119.710;2022-10-16T04:28:01;2;2;
40569;PMS5003;26270;34.428;-119.710;2022-10-16T04:30:30;2;2;
40569;PMS5003;26270;34.428;-119.710;2022-10-16T04:33:03;3;2;
40569;PMS5003;26270;34.428;-119.710;2022-10-16T04:35:31;2;2;
40569;PMS5003;26270;34.428;-119.710;2022-10-16T04:37:59;3;3;
40569;PMS5003;26270;34.428;-119.710;2022-10-16T04:40:28;4;3;
40569;PMS5003;26270;34.428;-119.710;2022-10-16T04:42:56;1;1;
40569;PMS5003;26270;34.428;-119.710;2022-10-16T04:45:24;3;2;
40569;PMS5003;26270;34.428;-119.710;2022-10-16T04:47:52;1;1;
40569;PMS5003;26270;34.428;-119.710;2022-10-16T04:50:23;1;1;
40569;PMS5003;26270;34.428;-119.710;2022-10-16T04:52:52;1;1;
40569;PMS5003;26270;34.428;-119.710;2022-10-16T04:55:20;3;3;
40569;PMS5003;26270;34.428;-119.710;2022-10-16T04:57:48;3;2;
40569;PMS5003;26270;34.428;-119.710;2022-10-16T05:00:16;4;4;
40569;PMS5003;26270;34.428;-119.710;2022-10-16T05:02:44;3;3;
40569;PMS5003;26270;34.428;-119.710;2022-10-16T05:05:13;3;3;
40569;PMS5003;26270;34.428;-119.710;2022-10-16T05:07:41;5;4;
40569;PMS5003;26270;34.428;-119.710;2022-10-16T05:10:10;3;3;
40569;PMS5003;26270;34.428;-119.710;2022-10-16T05:12:38;1;1;
40569;PMS5003;26270;34.428;-119.710;2022-10-16T05:15:07;3;3;
40569;PMS5003;26270;34.428;-119.710;2022-10-16T05:17:36;1;1;
40569;PMS5003;26270;34.428;-119.710;2022-10-16T05:20:04;3;3;
40569;PMS5003;26270;34.428;-119.710;2022-10-16T05:22:33;3;3;
40569;PMS5003;26270;34.428;-119.710;2022-10-16T05:25:01;3;3;
40569;PMS5003;26270;34.428;-119.710;2022-10-16T05:27:29;4;3;
40569;PMS5003;26270;34.428;-119.710;2022-10-16T05:29:58;4;3;
40569;PMS5003;26270;34.428;-119.710;2022-10-16T05:32:26;2;2;
40569;PMS5003;26270;34.428;-119.710;2022-10-16T05:34:54;5;5;
40569;PMS5003;26270;34.428;-119.710;2022-10-16T05:37:22;3;3;
40569;PMS5003;26270;34.428;-119.710;2022-10-16T05:39:51;4;4;
40569;PMS5003;26270;34.428;-119.710;2022-10-16T05:42:20;5;5;
40569;PMS5003;26270;34.428;-119.710;2022-10-16T05:44:48;3;3;
40569;PMS5003;26270;34.428;-119.710;2022-10-16T05:47:16;3;3;
40569;PMS5003;26270;34.428;-119.710;2022-10-16T05:49:45;4;3;
40569;PMS5003;26270;34.428;-119.710;2022-10-16T05:52:13;4;4;
40569;PMS5003;26270;34.428;-119.710;2022-10-16T05:54:41;4;4;
40569;PMS5003;26270;34.428;-119.710;2022-10-16T05:57:09;4;4;
40569;PMS5003;26270;34.428;-119.710;2022-10-16T05:59:38;4;4;
40569;PMS5003;26270;34.428;-119.710;2022-10-16T06:02:07;4;4;
40569;PMS5003;26270;34.428;-119.710;2022-10-16T06:04:38;4;4;
40569;PMS5003;26270;34.428;-119.710;2022-10-16T06:07:07;4;4;
40569;PMS5003;26270;34.428;-119.710;2022-10-16T06:09:36;4;4;
40569;PMS5003;26270;34.428;-119.710;2022-10-16T06:12:04;5;5;
40569;PMS5003;26270;34.428;-119.710;2022-10-16T06:14:32;6;6;
40569;PMS5003;26270;34.428;-119.710;2022-10-16T06:17:01;5;5;
40569;PMS5003;26270;34.428;-119.710;2022-10-16T06:19:29;6;5;
40569;PMS5003;26270;34.428;-119.710;2022-10-16T06:21:57;3;3;
40569;PMS5003;26270;34.428;-119.710;2022-10-16T06:24:25;4;4;
40569;PMS5003;26270;34.428;-119.710;2022-10-16T06:26:53;5;4;
40569;PMS5003;26270;34.428;-119.710;2022-10-16T06:29:22;2;2;
40569;PMS5003;26270;34.428;-119.710;2022-10-16T06:31:50;3;3;
40569;PMS5003;26270;34.428;-119.710;2022-10-16T06:34:18;4;4;
40569;PMS5003;26270;34.428;-119.710;2022-10-16T06:36:46;3;3;
40569;PMS5003;26270;34.428;-119.710;2022-10-16T06:39:14;6;5;
40569;PMS5003;26270;34.428;-119.710;2022-10-16T06:41:42;4;4;
40569;PMS5003;26270;34.428;-119.710;2022-10-16T06:44:11;3;3;
40569;PMS5003;26270;34.428;-119.710;2022-10-16T06:46:39;3;3;
40569;PMS5003;26270;34.428;-119.710;2022-10-16T06:49:07;4;4;
40569;PMS5003;26270;34.428;-119.710;2022-10-16T06:51:36;3;3;
40569;PMS5003;26270;34.428;-119.710;2022-10-16T06:54:04;3;3;
40569;PMS5003;26270;34.428;-119.710;2022-10-16T06:56:33;4;3;
40569;PMS5003;26270;34.428;-119.710;2022-10-16T06:59:03;4;4;
40569;PMS5003;26270;34.428;-119.710;2022-10-16T07:01:31;3;2;
40569;PMS5003;26270;34.428;-119.710;2022-10-16T07:03:59;3;3;
40569;PMS5003;26270;34.428;-119.710;2022-10-16T07:06:30;4;4;
40569;PMS5003;26270;34.428;-119.710;2022-10-16T07:09:00;4;3;
40569;PMS5003;26270;34.428;-119.710;2022-10-16T07:11:30;3;3;
40569;PMS5003;26270;34.428;-119.710;2022-10-16T07:13:59;3;3;
40569;PMS5003;26270;34.428;-119.710;2022-10-16T07:16:28;5;4;
40569;PMS5003;26270;34.428;-119.710;2022-10-16T07:19:00;4;4;
40569;PMS5003;26270;34.428;-119.710;2022-10-16T07:21:29;3;3;
40569;PMS5003;26270;34.428;-119.710;2022-10-16T07:24:00;3;3;
40569;PMS5003;26270;34.428;-119.710;2022-10-16T07:26:29;4;4;
40569;PMS5003;26270;34.428;-119.710;2022-10-16T07:28:59;3;3;
40569;PMS5003;26270;34.428;-119.710;2022-10-16T07:31:28;7;3;
40569;PMS5003;26270;34.428;-119.710;2022-10-16T07:33:58;3;3;
40569;PMS5003;26270;34.428;-119.710;2022-10-16T07:36:27;2;2;
40569;PMS5003;26270;34.428;-119.710;2022-10-16T07:38:55;4;3;
40569;PMS5003;26270;34.428;-119.710;2022-10-16T07:41:23;2;2;
40569;PMS5003;26270;34.428;-119.710;2022-10-16T07:43:52;5;4;
40569;PMS5003;26270;34.428;-119.710;2022-10-16T07:46:22;3;3;
40569;PMS5003;26270;34.428;-119.710;2022-10-16T07:48:51;4;4;
40569;PMS5003;26270;34.428;-119.710;2022-10-16T07:51:19;3;3;
40569;PMS5003;26270;34.428;-119.710;2022-10-16T07:53:52;3;2;
40569;PMS5003;26270;34.428;-119.710;2022-10-16T07:56:21;3;3;
40569;PMS5003;26270;34.428;-119.710;2022-10-16T07:58:49;4;4;
40569;PMS5003;26270;34.428;-119.710;2022-10-16T08:01:24;3;3;
40569;PMS5003;26270;34.428;-119.710;2022-10-16T08:03:52;3;3;
40569;PMS5003;26270;34.428;-119.710;2022-10-16T08:06:21;3;3;
40569;PMS5003;26270;34.428;-119.710;2022-10-16T08:08:49;5;5;
40569;PMS5003;26270;34.428;-119.710;2022-10-16T08:11:17;4;3;
40569;PMS5003;26270;34.428;-119.710;2022-10-16T08:13:46;4;4;
40569;PMS5003;26270;34.428;-119.710;2022-10-16T08:16:14;2;2;
40569;PMS5003;26270;34.428;-119.710;2022-10-16T08:18:42;4;3;
40569;PMS5003;26270;34.428;-119.710;2022-10-16T08:21:12;6;4;
40569;PMS5003;26270;34.428;-119.710;2022-10-16T08:23:42;4;3;
40569;PMS5003;26270;34.428;-119.710;2022-10-16T08:26:10;7;6;
40569;PMS5003;26270;34.428;-119.710;2022-10-16T08:28:39;5;4;
40569;PMS5003;26270;34.428;-119.710;2022-10-16T08:31:09;3;3;
40569;PMS5003;26270;34.428;-119.710;2022-10-16T08:33:39;3;3;
40569;PMS5003;26270;34.428;-119.710;2022-10-16T08:36:09;3;2;
40569;PMS5003;26270;34.428;-119.710;2022-10-16T08:38:38;4;3;
40569;PMS5003;26270;34.428;-119.710;2022-10-16T08:41:19;4;4;
40569;PMS5003;26270;34.428;-119.710;2022-10-16T08:43:59;5;5;
40569;PMS5003;26270;34.428;-119.710;2022-10-16T08:46:43;5;4;
40569;PMS5003;26270;34.428;-119.710;2022-10-16T08:49:18;4;4;
40569;PMS5003;26270;34.428;-119.710;2022-10-16T08:51:46;5;5;
40569;PMS5003;26270;34.428;-119.710;2022-10-16T08:54:18;4;3;
40569;PMS5003;26270;34.428;-119.710;2022-10-16T08:56:55;4;4;
40569;PMS5003;26270;34.428;-119.710;2022-10-16T08:59:23;3;3;
40569;PMS5003;26270;34.428;-119.710;2022-10-16T09:01:51;4;4;
40569;PMS5003;26270;34.428;-119.710;2022-10-16T09:04:26;9;6;
40569;PMS5003;26270;34.428;-119.710;2022-10-16T09:07:11;3;3;
40569;PMS5003;26270;34.428;-119.710;2022-10-16T09:09:49;7;6;
40569;PMS5003;26270;34.428;-119.710;2022-10-16T09:12:28;3;3;
40569;PMS5003;26270;34.428;-119.710;2022-10-16T09:15:10;4;3;
40569;PMS5003;26270;34.428;-119.710;2022-10-16T09:17:46;6;6;
40569;PMS5003;26270;34.428;-119.710;2022-10-16T09:20:27;4;4;
40569;PMS5003;26270;34.428;-119.710;2022-10-16T09:23:08;4;4;
40569;PMS5003;26270;34.428;-119.710;2022-10-16T09:25:43;6;5;
40569;PMS5003;26270;34.428;-119.710;2022-10-16T09:28:13;4;4;
40569;PMS5003;26270;34.428;-119.710;2022-10-16T09:30:41;6;5;
40569;PMS5003;26270;34.428;-119.710;2022-10-16T09:33:10;7;6;
40569;PMS5003;26270;34.428;-119.710;2022-10-16T09:35:41;4;4;
40569;PMS5003;26270;34.428;-119.710;2022-10-16T09:38:21;4;4;
40569;PMS5003;26270;34.428;-119.710;2022-10-16T09:40:51;3;3;
40569;PMS5003;26270;34.428;-119.710;2022-10-16T09:43:22;5;5;
40569;PMS5003;26270;34.428;-119.710;2022-10-16T09:45:54;6;6;
40569;PMS5003;26270;34.428;-119.710;2022-10-16T09:48:23;4;4;
40569;PMS5003;26270;34.428;-119.710;2022-10-16T09:50:56;5;5;
40569;PMS5003;26270;34.428;-119.710;2022-10-16T09:53:27;2;2;
40569;PMS5003;26270;34.428;-119.710;2022-10-16T09:56:07;4;4;
40569;PMS5003;26270;34.428;-119.710;2022-10-16T09:58:37;4;4;
40569;PMS5003;26270;34.428;-119.710;2022-10-16T10:01:11;3;2;
40569;PMS5003;26270;34.428;-119.710;2022-10-16T10:03:41;6;5;
40569;PMS5003;26270;34.428;-119.710;2022-10-16T10:06:27;6;6;
40569;PMS5003;26270;34.428;-119.710;2022-10-16T10:08:59;5;5;
40569;PMS5003;26270;34.428;-119.710;2022-10-16T10:11:40;6;6;
40569;PMS5003;26270;34.428;-119.710;2022-10-16T10:14:17;5;5;
40569;PMS5003;26270;34.428;-119.710;2022-10-16T10:16:49;5;5;
40569;PMS5003;26270;34.428;-119.710;2022-10-16T10:19:18;4;4;
40569;PMS5003;26270;34.428;-119.710;2022-10-16T10:21:48;4;4;
40569;PMS5003;26270;34.428;-119.710;2022-10-16T10:24:18;4;4;
40569;PMS5003;26270;34.428;-119.710;2022-10-16T10:26:49;5;5;
40569;PMS5003;26270;34.428;-119.710;2022-10-16T10:29:25;5;5;
40569;PMS5003;26270;34.428;-119.710;2022-10-16T10:32:12;5;4;
40569;PMS5003;26270;34.428;-119.710;2022-10-16T10:34:52;6;5;
40569;PMS5003;26270;34.428;-119.710;2022-10-16T10:37:33;5;5;
40569;PMS5003;26270;34.428;-119.710;2022-10-16T10:40:13;4;4;
40569;PMS5003;26270;34.428;-119.710;2022-10-16T10:42:50;5;5;
40569;PMS5003;26270;34.428;-119.710;2022-10-16T10:45:27;7;5;
40569;PMS5003;26270;34.428;-119.710;2022-10-16T10:48:10;5;4;
40569;PMS5003;26270;34.428;-119.710;2022-10-16T10:50:48;5;4;
40569;PMS5003;26270;34.428;-119.710;2022-10-16T10:53:24;5;5;
40569;PMS5003;26270;34.428;-119.710;2022-10-16T10:56:00;4;4;
40569;PMS5003;26270;34.428;-119.710;2022-10-16T10:58:46;4;4;
40569;PMS5003;26270;34.428;-119.710;2022-10-16T11:01:28;5;5;
40569;PMS5003;26270;34.428;-119.710;2022-10-16T11:04:15;5;5;
40569;PMS5003;26270;34.428;-119.710;2022-10-16T11:06:58;3;3;
40569;PMS5003;26270;34.428;-119.710;2022-10-16T11:09:31;5;5;
40569;PMS5003;26270;34.428;-119.710;2022-10-16T11:12:06;8;5;
40569;PMS5003;26270;34.428;-119.710;2022-10-16T11:14:41;4;4;
40569;PMS5003;26270;34.428;-119.710;2022-10-16T11:17:15;4;4;
40569;PMS5003;26270;34.428;-119.710;2022-10-16T11:19:47;6;5;
40569;PMS5003;26270;34.428;-119.710;2022-10-16T11:22:20;5;5;
40569;PMS5003;26270;34.428;-119.710;2022-10-16T11:24:53;6;5;
40569;PMS5003;26270;34.428;-119.710;2022-10-16T11:27:30;4;4;
40569;PMS5003;26270;34.428;-119.710;2022-10-16T11:30:04;5;5;
40569;PMS5003;26270;34.428;-119.710;2022-10-16T11:32:47;4;4;
40569;PMS5003;26270;34.428;-119.710;2022-10-16T11:35:24;5;5;
40569;PMS5003;26270;34.428;-119.710;2022-10-16T11:37:59;5;5;
40569;PMS5003;26270;34.428;-119.710;2022-10-16T11:40:34;6;5;
40569;PMS5003;26270;34.428;-119.710;2022-10-16T11:43:10;4;4;
40569;PMS5003;26270;34.428;-119.710;2022-10-16T11:45:44;5;5;
40569;PMS5003;26270;34.428;-119.710;2022-10-16T11:48:20;5;5;
40569;PMS5003;26270;34.428;-119.710;2022-10-16T11:50:56;5;5;
40569;PMS5003;26270;34.428;-119.710;2022-10-16T11:53:34;6;5;
40569;PMS5003;26270;34.428;-119.710;2022-10-16T11:56:11;4;4;
40569;PMS5003;26270;34.428;-119.710;2022-10-16T11:58:47;6;5;
40569;PMS5003;26270;34.428;-119.710;2022-10-16T12:01:22;5;5;
40569;PMS5003;26270;34.428;-119.710;2022-10-16T12:04:01;6;5;
40569;PMS5003;26270;34.428;-119.710;2022-10-16T12:06:42;4;4;
40569;PMS5003;26270;34.428;-119.710;2022-10-16T12:09:17;6;5;
40569;PMS5003;26270;34.428;-119.710;2022-10-16T12:11:49;7;6;
40569;PMS5003;26270;34.428;-119.710;2022-10-16T12:14:21;7;7;
40569;PMS5003;26270;34.428;-119.710;2022-10-16T12:17:38;4;4;
40569;PMS5003;26270;34.428;-119.710;2022-10-16T12:20:23;6;5;
40569;PMS5003;26270;34.428;-119.710;2022-10-16T12:22:55;7;6;
40569;PMS5003;26270;34.428;-119.710;2022-10-16T12:25:25;7;7;
40569;PMS5003;26270;34.428;-119.710;2022-10-16T12:27:57;4;4;
40569;PMS5003;26270;34.428;-119.710;2022-10-16T12:30:28;8;7;
40569;PMS5003;26270;34.428;-119.710;2022-10-16T12:32:58;7;6;
40569;PMS5003;26270;34.428;-119.710;2022-10-16T12:35:29;7;7;
40569;PMS5003;26270;34.428;-119.710;2022-10-16T12:38:07;5;5;
40569;PMS5003;26270;34.428;-119.710;2022-10-16T12:40:42;9;8;
40569;PMS5003;26270;34.428;-119.710;2022-10-16T12:43:24;12;11;
40569;PMS5003;26270;34.428;-119.710;2022-10-16T12:46:03;14;14;
40569;PMS5003;26270;34.428;-119.710;2022-10-16T12:48:46;10;9;
40569;PMS5003;26270;34.428;-119.710;2022-10-16T12:51:22;10;10;
40569;PMS5003;26270;34.428;-119.710;2022-10-16T12:53:58;14;14;
40569;PMS5003;26270;34.428;-119.710;2022-10-16T12:56:28;5;5;
40569;PMS5003;26270;34.428;-119.710;2022-10-16T12:59:06;4;4;
40569;PMS5003;26270;34.428;-119.710;2022-10-16T13:01:49;5;5;
40569;PMS5003;26270;34.428;-119.710;2022-10-16T13:04:34;6;6;
40569;PMS5003;26270;34.428;-119.710;2022-10-16T13:07:17;8;7;
40569;PMS5003;26270;34.428;-119.710;2022-10-16T13:09:58;6;6;
40569;PMS5003;26270;34.428;-119.710;2022-10-16T13:12:42;5;5;
40569;PMS5003;26270;34.428;-119.710;2022-10-16T13:15:26;5;5;
40569;PMS5003;26270;34.428;-119.710;2022-10-16T13:18:07;7;7;
40569;PMS5003;26270;34.428;-119.710;2022-10-16T13:20:51;8;7;
40569;PMS5003;26270;34.428;-119.710;2022-10-16T13:23:27;7;7;
40569;PMS5003;26270;34.428;-119.710;2022-10-16T13:26:05;7;7;
40569;PMS5003;26270;34.428;-119.710;2022-10-16T13:28:42;5;4;
40569;PMS5003;26270;34.428;-119.710;2022-10-16T13:31:12;6;6;
40569;PMS5003;26270;34.428;-119.710;2022-10-16T13:33:46;7;6;
40569;PMS5003;26270;34.428;-119.710;2022-10-16T13:36:19;7;7;
40569;PMS5003;26270;34.428;-119.710;2022-10-16T13:38:58;7;7;
40569;PMS5003;26270;34.428;-119.710;2022-10-16T13:41:31;7;6;
40569;PMS5003;26270;34.428;-119.710;2022-10-16T13:44:00;6;6;
40569;PMS5003;26270;34.428;-119.710;2022-10-16T13:46:28;6;6;
40569;PMS5003;26270;34.428;-119.710;2022-10-16T13:48:57;4;4;
40569;PMS5003;26270;34.428;-119.710;2022-10-16T13:51:26;5;4;
40569;PMS5003;26270;34.428;-119.710;2022-10-16T13:53:55;6;5;
40569;PMS5003;26270;34.428;-119.710;2022-10-16T13:56:25;6;6;
40569;PMS5003;26270;34.428;-119.710;2022-10-16T13:58:58;5;5;
40569;PMS5003;26270;34.428;-119.710;2022-10-16T14:01:27;7;6;
40569;PMS5003;26270;34.428;-119.710;2022-10-16T14:04:01;7;6;
40569;PMS5003;26270;34.428;-119.710;2022-10-16T14:06:31;5;5;
40569;PMS5003;26270;34.428;-119.710;2022-10-16T14:09:00;7;5;
40569;PMS5003;26270;34.428;-119.710;2022-10-16T14:11:32;7;6;
40569;PMS5003;26270;34.428;-119.710;2022-10-16T14:14:04;8;7;
40569;PMS5003;26270;34.428;-119.710;2022-10-16T14:16:33;7;7;
40569;PMS5003;26270;34.428;-119.710;2022-10-16T14:19:01;7;7;
40569;PMS5003;26270;34.428;-119.710;2022-10-16T14:21:32;7;6;
40569;PMS5003;26270;34.428;-119.710;2022-10-16T14:24:10;8;8;
40569;PMS5003;26270;34.428;-119.710;2022-10-16T14:26:41;6;6;
40569;PMS5003;26270;34.428;-119.710;2022-10-16T14:29:11;6;6;
40569;PMS5003;26270;34.428;-119.710;2022-10-16T14:31:40;8;8;
40569;PMS5003;26270;34.428;-119.710;2022-10-16T14:34:25;7;7;
40569;PMS5003;26270;34.428;-119.710;2022-10-16T14:36:55;7;6;
40569;PMS5003;26270;34.428;-119.710;2022-10-16T14:39:25;8;7;
40569;PMS5003;26270;34.428;-119.710;2022-10-16T14:41:55;9;9;
40569;PMS5003;26270;34.428;-119.710;2022-10-16T14:44:26;12;12;
40569;PMS5003;26270;34.428;-119.710;2022-10-16T14:47:05;9;8;
40569;PMS5003;26270;34.428;-119.710;2022-10-16T14:49:36;9;9;
40569;PMS5003;26270;34.428;-119.710;2022-10-16T14:52:07;12;12;
40569;PMS5003;26270;34.428;-119.710;2022-10-16T14:54:37;11;11;
40569;PMS5003;26270;34.428;-119.710;2022-10-16T14:57:05;11;11;
40569;PMS5003;26270;34.428;-119.710;2022-10-16T14:59:45;11;10;
40569;PMS5003;26270;34.428;-119.710;2022-10-16T15:02:18;7;7;
40569;PMS5003;26270;34.428;-119.710;2022-10-16T15:04:57;10;10;
40569;PMS5003;26270;34.428;-119.710;2022-10-16T15:07:29;10;9;
40569;PMS5003;26270;34.428;-119.710;2022-10-16T15:09:56;8;8;
40569;PMS5003;26270;34.428;-119.710;2022-10-16T15:12:24;7;7;
40569;PMS5003;26270;34.428;-119.710;2022-10-16T15:14:53;8;6;
40569;PMS5003;26270;34.428;-119.710;2022-10-16T15:17:21;8;8;
40569;PMS5003;26270;34.428;-119.710;2022-10-16T15:19:48;9;9;
40569;PMS5003;26270;34.428;-119.710;2022-10-16T15:22:17;6;6;
40569;PMS5003;26270;34.428;-119.710;2022-10-16T15:24:45;7;7;
40569;PMS5003;26270;34.428;-119.710;2022-10-16T15:27:14;7;7;
40569;PMS5003;26270;34.428;-119.710;2022-10-16T15:29:42;7;7;
40569;PMS5003;26270;34.428;-119.710;2022-10-16T15:32:10;7;7;
40569;PMS5003;26270;34.428;-119.710;2022-10-16T15:34:38;8;7;
40569;PMS5003;26270;34.428;-119.710;2022-10-16T15:37:06;8;7;
40569;PMS5003;26270;34.428;-119.710;2022-10-16T15:39:35;7;7;
40569;PMS5003;26270;34.428;-119.710;2022-10-16T15:42:03;9;8;
40569;PMS5003;26270;34.428;-119.710;2022-10-16T15:44:31;6;6;
40569;PMS5003;26270;34.428;-119.710;2022-10-16T15:46:59;8;7;
40569;PMS5003;26270;34.428;-119.710;2022-10-16T15:49:28;6;6;
40569;PMS5003;26270;34.428;-119.710;2022-10-16T15:51:56;9;7;
40569;PMS5003;26270;34.428;-119.710;2022-10-16T15:54:24;8;8;
40569;PMS5003;26270;34.428;-119.710;2022-10-16T15:56:51;10;10;
40569;PMS5003;26270;34.428;-119.710;2022-10-16T15:59:19;9;8;
40569;PMS5003;26270;34.428;-119.710;2022-10-16T16:01:47;9;8;
40569;PMS5003;26270;34.428;-119.710;2022-10-16T16:04:15;9;7;
40569;PMS5003;26270;34.428;-119.710;2022-10-16T16:06:43;7;6;
40569;PMS5003;26270;34.428;-119.710;2022-10-16T16:09:11;7;7;
40569;PMS5003;26270;34.428;-119.710;2022-10-16T16:11:40;8;8;
40569;PMS5003;26270;34.428;-119.710;2022-10-16T16:14:09;8;8;
40569;PMS5003;26270;34.428;-119.710;2022-10-16T16:16:39;8;6;
40569;PMS5003;26270;34.428;-119.710;2022-10-16T16:19:07;8;8;
40569;PMS5003;26270;34.428;-119.710;2022-10-16T16:21:35;8;7;
40569;PMS5003;26270;34.428;-119.710;2022-10-16T16:24:04;9;9;
40569;PMS5003;26270;34.428;-119.710;2022-10-16T16:26:32;8;7;
40569;PMS5003;26270;34.428;-119.710;2022-10-16T16:29:00;6;6;
40569;PMS5003;26270;34.428;-119.710;2022-10-16T16:31:30;6;6;